createdAt,value
2022-07-26T00:50:53.703Z,30.00
2022-07-26T01:36:02.906Z,30.30
2022-07-26T01:50:58.749Z,30.30
2022-07-26T02:44:40.879Z,39.20
2022-07-26T03:14:36.513Z,42.50
2022-07-26T03:46:22.937Z,44.20
2022-07-26T04:47:09.168Z,46.40
2022-07-26T05:18:14.691Z,43.80
2022-07-26T05:33:16.906Z,44.30
2022-07-26T06:03:38.330Z,43.80
2022-07-26T06:34:15.291Z,41.90
2022-07-26T06:50:42.243Z,41.20
2022-07-26T07:05:50.470Z,40.60
2022-07-26T07:20:40.388Z,40.20
2022-07-26T07:35:43.583Z,40.00
2022-07-26T08:08:14.465Z,40.20
2022-07-26T08:42:23.170Z,38.70
2022-07-26T08:57:15.246Z,38.10
2022-07-26T09:12:16.182Z,39.10
2022-07-26T09:27:16.615Z,37.80
2022-07-26T09:42:30.456Z,36.40
2022-07-26T09:57:17.275Z,36.90
2022-07-26T10:12:36.371Z,35.60
2022-07-26T10:27:28.099Z,36.90
2022-07-26T10:44:27.902Z,33.30
2022-07-26T10:59:57.691Z,43.70
2022-07-26T11:14:31.670Z,33.30
2022-07-26T11:46:22.579Z,33.20
2022-07-26T12:02:46.415Z,32.30
2022-07-26T12:17:45.826Z,30.80
2022-07-26T12:32:46.286Z,30.80
2022-07-26T12:47:46.590Z,30.50
2022-07-26T13:02:46.922Z,31.20
2022-07-26T13:17:46.992Z,30.90
2022-07-26T13:32:47.335Z,30.40
2022-07-26T13:47:47.967Z,29.90
2022-07-26T14:02:48.189Z,29.70
2022-07-26T14:17:48.574Z,29.60
2022-07-26T14:32:48.648Z,30.00
2022-07-26T14:47:49.100Z,30.40
2022-07-26T15:02:49.894Z,30.60
2022-07-26T15:17:51.185Z,29.90
2022-07-26T15:32:49.893Z,29.60
2022-07-26T15:48:19.502Z,28.60
2022-07-26T16:02:51.016Z,29.00
2022-07-26T16:17:51.019Z,29.90
2022-07-26T16:32:51.573Z,30.40
2022-07-26T16:48:00.772Z,30.80
2022-07-26T17:02:52.009Z,30.90
2022-07-26T17:17:52.258Z,33.60
2022-07-26T17:32:53.332Z,34.60
2022-07-26T17:47:52.644Z,36.00
2022-07-26T18:02:53.064Z,36.60
2022-07-26T18:17:53.634Z,36.90
2022-07-26T18:32:53.876Z,37.20
2022-07-26T18:48:00.325Z,36.40
2022-07-26T19:02:54.543Z,36.30
2022-07-26T19:17:54.604Z,37.50
2022-07-26T19:32:54.988Z,38.10
2022-07-26T19:52:20.265Z,38.80
2022-07-26T20:22:42.609Z,39.20
2022-07-26T20:37:42.919Z,40.40
2022-07-26T20:52:46.277Z,40.90
2022-07-26T21:08:00.826Z,41.00
2022-07-26T21:22:43.943Z,41.90
2022-07-26T21:37:47.285Z,42.20
2022-07-26T21:52:44.580Z,42.50
2022-07-26T22:07:47.569Z,42.50
2022-07-26T22:22:45.462Z,42.80
2022-07-26T22:37:47.469Z,43.10
2022-07-26T22:52:45.963Z,42.70
2022-07-26T23:07:50.031Z,42.60
2022-07-26T23:22:48.750Z,42.60
2022-07-26T23:37:49.175Z,42.60
2022-07-26T23:52:48.536Z,42.90
